Date,TemperatureHighF,TemperatureAvgF,TemperatureLowF,DewpointHighF,DewpointAvgF,DewpointLowF,HumidityHigh,HumidityAvg,HumidityLow,PressureMaxIn,PressureMinIn,WindSpeedMaxMPH,WindSpeedAvgMPH,GustSpeedMaxMPH,PrecipitationSumIn
2013-1-1,37.2,32.5,26.1,36.5,31.4,23.2,100,96,86,30.24,30.03,8,2,11,0.01
2013-1-2,36.0,26.8,20.7,25.0,19.9,15.8,89,76,53,30.26,30.17,6,1,8,0.00
2013-1-3,41.7,28.5,17.6,32.0,20.9,12.8,88,74,50,30.42,30.25,7,1,24,0.00
2013-1-4,46.2,32.9,19.8,28.0,21.9,16.0,90,66,37,30.45,30.32,10,1,14,0.00
2013-1-5,43.2,35.6,25.5,34.1,28.0,17.8,87,74,65,30.32,30.17,9,2,13,0.00
2013-1-6,45.3,32.5,22.1,29.3,22.0,14.6,91,68,34,30.36,30.23,9,2,12,0.00
2013-1-7,52.2,33.8,19.0,31.1,21.5,12.2,85,63,34,30.34,30.12,11,1,15,0.00
2013-1-8,60.3,41.4,23.5,47.0,34.1,17.5,100,77,51,30.21,30.04,8,1,13,0.08
2013-1-9,54.0,50.1,46.8,48.7,45.4,40.3,99,85,64,30.34,30.21,11,3,17,0.09
2013-1-10,61.2,51.5,46.8,57.1,48.4,42.2,95,89,74,30.22,29.82,9,4,15,0.05
2013-1-11,66.4,55.4,44.2,47.3,45.4,42.3,95,71,45,29.90,29.75,15,4,24,0.00
2013-1-12,59.0,44.7,30.6,51.8,37.7,27.2,92,78,44,29.95,29.77,14,4,19,0.25
2013-1-13,30.6,23.7,16.9,27.2,16.9,9.8,87,75,65,30.33,29.94,172,0,172,0.00
2013-1-14,33.4,22.7,14.9,12.7,10.0,7.3,76,59,37,30.44,30.30,10,1,13,0.00
2013-1-15,34.2,25.4,16.2,20.1,13.7,8.1,77,62,45,30.31,28.75,8,2,10,0.00
2013-1-16,42.4,26.8,14.2,20.6,14.2,7.5,81,61,35,30.19,30.09,7,1,11,0.00
2013-1-17,48.0,33.2,21.2,32.7,22.6,14.2,77,66,44,30.48,30.19,12,2,18,0.00
2013-1-18,57.0,37.8,20.7,31.9,24.4,15.5,86,62,31,30.50,30.21,12,2,17,0.00
2013-1-19,63.3,48.2,34.3,37.4,32.3,26.3,82,56,35,30.21,30.08,11,3,19,0.00
2013-1-20,61.7,42.7,27.9,38.1,29.5,17.3,90,63,33,30.26,30.11,14,2,17,0.00
2013-1-21,32.9,29.2,22.6,20.4,13.0,10.5,67,51,40,30.38,30.25,11,5,14,0.00
2013-1-30,33.3,31.0,30.9,26.5,24.7,24.4,78,77,75,29.85,29.79,17,9,27,0.01
2013-1-31,30.9,30.9,30.9,24.6,24.6,24.6,77,77,77,29.85,29.85,8,8,18,0.01